Time;durP1;ratioP1;P1;durP2;ratioP2;P2;SDS_P1;SDS_P2;PMS_P1;PMS_P2;Temp;Humidity;BMP_temperature;BMP_pressure;BME280_temperature;BME280_humidity;BME280_pressure;Samples;Min_cycle;Max_cycle;Signal;HPM_P1;HPM_P2
2023/01/03 00:01:07;;;;;;;91.78;48.00;;;;;;;2.23;90.43;100504.09;5111248;28;20425;-68
2023/01/03 00:03:33;;;;;;;85.85;43.03;;;;;;;2.43;90.51;100499.97;5114374;28;20036;-69
2023/01/03 00:05:58;;;;;;;77.13;43.42;;;;;;;2.71;89.68;100507.22;5113252;28;20073;-69
2023/01/03 00:08:23;;;;;;;78.93;42.97;;;;;;;2.76;89.40;100511.97;5113964;28;20027;-69
2023/01/03 00:10:49;;;;;;;71.55;42.20;;;;;;;2.92;88.39;100524.06;5114410;28;20038;-69
2023/01/03 00:13:14;;;;;;;77.00;40.90;;;;;;;2.85;88.82;100510.44;5113205;28;20028;-69
2023/01/03 00:15:40;;;;;;;73.57;39.20;;;;;;;2.76;88.86;100520.25;5113955;28;20019;-69
2023/01/03 00:18:05;;;;;;;86.00;45.72;;;;;;;2.84;88.21;100521.78;5111450;28;20542;-69
2023/01/03 00:20:33;;;;;;;83.82;45.63;;;;;;;3.01;86.55;100522.53;5115095;28;20023;-69
2023/01/03 00:23:00;;;;;;;66.28;39.25;;;;;;;2.91;86.05;100522.38;5113311;28;20115;-69
2023/01/03 00:25:26;;;;;;;64.32;37.45;;;;;;;2.84;88.22;100517.06;5112826;28;20472;-68
2023/01/03 00:27:52;;;;;;;65.65;36.83;;;;;;;2.71;89.25;100509.97;5113384;28;20051;-69
2023/01/03 00:30:17;;;;;;;61.55;33.25;;;;;;;2.92;87.34;100513.84;5113226;28;20027;-69
2023/01/03 00:32:43;;;;;;;57.40;34.25;;;;;;;3.06;86.27;100508.75;5114763;28;20020;-69
2023/01/03 00:35:08;;;;;;;60.58;33.80;;;;;;;3.02;85.66;100518.66;5113296;28;20028;-69
2023/01/03 00:37:34;;;;;;;59.90;33.20;;;;;;;3.03;86.03;100508.44;5114621;28;20034;-69
2023/01/03 00:39:59;;;;;;;53.83;32.28;;;;;;;2.96;86.87;100511.41;5113289;28;20016;-69
2023/01/03 00:42:25;;;;;;;55.65;31.92;;;;;;;2.89;86.77;100502.47;5113202;28;20486;-69
2023/01/03 00:44:50;;;;;;;52.97;29.55;;;;;;;2.90;86.97;100505.00;5105039;28;20065;-69
2023/01/03 00:47:15;;;;;;;59.72;32.45;;;;;;;2.92;87.25;100499.19;5112931;28;20019;-69
2023/01/03 00:49:41;;;;;;;51.95;29.92;;;;;;;2.93;86.79;100492.56;5113075;28;20019;-68
2023/01/03 00:52:06;;;;;;;50.30;27.30;;;;;;;2.88;87.68;100504.38;5114520;28;20020;-69
2023/01/03 00:54:32;;;;;;;54.65;28.42;;;;;;;3.00;87.56;100492.34;5114359;28;20024;-69
2023/01/03 00:56:57;;;;;;;44.45;27.02;;;;;;;3.12;87.99;100489.47;5111665;28;20052;-69
2023/01/03 00:59:23;;;;;;;58.13;29.63;;;;;;;3.21;87.46;100494.25;5111535;28;20024;-69
2023/01/03 01:01:51;;;;;;;53.53;28.70;;;;;;;3.27;87.08;100499.84;5113523;28;20038;-69
2023/01/03 01:04:23;;;;;;;50.85;30.50;;;;;;;3.18;87.00;100500.31;5112500;28;20034;-68
2023/01/03 01:06:51;;;;;;;49.40;30.60;;;;;;;3.09;84.62;100491.66;5111369;28;20146;-69
2023/01/03 01:09:21;;;;;;;53.13;30.05;;;;;;;3.04;83.68;100493.53;5111075;28;20383;-69
2023/01/03 01:11:47;;;;;;;49.53;30.08;;;;;;;2.69;86.87;100494.78;5112808;28;20028;-69
2023/01/03 01:14:19;;;;;;;54.97;30.45;;;;;;;2.77;86.82;100499.84;5113286;27;20050;-69
2023/01/03 01:16:51;;;;;;;49.25;29.42;;;;;;;2.83;84.95;100492.44;5111022;28;20024;-68
2023/01/03 01:19:19;;;;;;;58.17;32.47;;;;;;;3.02;84.26;100495.72;5112822;28;20023;-69
2023/01/03 01:21:45;;;;;;;58.92;31.23;;;;;;;3.05;83.37;100495.19;5112978;28;20486;-69
2023/01/03 01:24:11;;;;;;;54.97;31.30;;;;;;;3.03;83.64;100486.34;5112416;28;20030;-69
2023/01/03 01:26:37;;;;;;;52.22;30.85;;;;;;;2.99;83.33;100487.94;5111150;28;20016;-68
2023/01/03 01:29:03;;;;;;;53.97;30.98;;;;;;;2.89;82.43;100489.47;5111601;28;20050;-69
2023/01/03 01:31:28;;;;;;;61.63;35.53;;;;;;;2.72;83.13;100486.81;5110097;28;20107;-68
2023/01/03 01:33:55;;;;;;;183.13;112.72;;;;;;;2.84;82.70;100483.09;5091756;28;20035;-68
2023/01/03 01:36:26;;;;;;;163.38;100.40;;;;;;;2.93;82.81;100482.34;5093146;28;20113;-69
2023/01/03 01:38:59;;;;;;;122.13;72.40;;;;;;;2.91;82.85;100476.25;5093041;28;20016;-68
2023/01/03 01:44:44;;;;;;;72.53;44.63;;;;;;;2.90;82.19;100474.59;5100023;28;20035;-68
2023/01/03 01:47:29;;;;;;;63.80;36.25;;;;;;;2.86;82.57;100475.38;5111994;28;20073;-69
2023/01/03 01:49:58;;;;;;;69.45;38.42;;;;;;;2.66;82.91;100465.72;5113203;28;20019;-68
2023/01/03 01:52:24;;;;;;;61.55;36.60;;;;;;;2.75;82.95;100474.38;5111910;28;20429;-69
2023/01/03 01:54:51;;;;;;;65.20;35.92;;;;;;;2.76;82.71;100456.72;5113018;28;20019;-68
2023/01/03 01:57:20;;;;;;;67.75;38.15;;;;;;;2.71;82.29;100459.44;5111936;28;20031;-68
2023/01/03 01:59:46;;;;;;;58.60;34.55;;;;;;;2.79;82.63;100453.47;5110671;27;20031;-68
2023/01/03 02:02:15;;;;;;;63.17;36.97;;;;;;;2.75;82.41;100469.72;5111276;28;20025;-68
2023/01/03 02:04:41;;;;;;;65.85;36.83;;;;;;;2.73;82.72;100462.75;5111271;28;20072;-68
2023/01/03 02:07:07;;;;;;;71.30;37.60;;;;;;;2.72;82.63;100461.09;5098775;28;20441;-68
2023/01/03 02:09:34;;;;;;;66.28;36.97;;;;;;;2.57;82.89;100457.06;5107737;28;20469;-68
2023/01/03 02:15:46;;;;;;;63.38;35.03;;;;;;;2.53;82.08;100451.22;5111840;28;20034;-69
2023/01/03 02:18:24;;;;;;;65.05;36.72;;;;;;;2.45;82.01;100453.59;5110898;28;20402;-68
2023/01/03 02:20:52;;;;;;;58.17;34.83;;;;;;;2.43;82.62;100456.59;5111798;28;20035;-69
2023/01/03 02:23:45;;;;;;;63.85;36.92;;;;;;;2.42;82.86;100445.84;5109353;28;20028;-68
2023/01/03 02:26:45;;;;;;;67.15;36.97;;;;;;;2.44;83.36;100451.94;5108438;28;20406;-68
2023/01/03 02:29:40;;;;;;;67.82;37.00;;;;;;;2.54;82.83;100452.06;5040237;28;20151;-68
2023/01/03 02:32:37;;;;;;;71.15;38.40;;;;;;;2.38;84.27;100451.84;5110815;28;20042;-68
2023/01/03 02:35:23;;;;;;;77.95;39.67;;;;;;;2.41;84.13;100452.41;5112272;28;20016;-68
2023/01/03 02:38:10;;;;;;;73.35;41.28;;;;;;;2.18;84.54;100438.59;5112715;28;20031;-68
2023/01/03 02:41:02;;;;;;;74.15;41.50;;;;;;;2.31;83.87;100437.41;5112240;28;20019;-68
2023/01/03 02:43:40;;;;;;;85.80;43.10;;;;;;;2.15;84.97;100439.13;5102025;28;20506;-69
2023/01/03 02:46:22;;;;;;;81.15;42.92;;;;;;;2.13;84.18;100437.69;5112239;28;20020;-68
2023/01/03 02:49:12;;;;;;;74.82;39.88;;;;;;;2.10;84.28;100441.78;5110884;28;20502;-69
2023/01/03 02:51:43;;;;;;;74.15;40.30;;;;;;;2.12;83.92;100436.03;5110983;28;20458;-69
2023/01/03 02:54:12;;;;;;;70.70;39.83;;;;;;;1.97;83.57;100440.25;5112009;28;20054;-68
2023/01/03 02:56:44;;;;;;;66.85;36.08;;;;;;;1.92;83.96;100438.25;5110491;28;20040;-68
2023/01/03 02:59:16;;;;;;;66.53;38.05;;;;;;;1.81;85.04;100434.50;5110274;28;20019;-68
2023/01/03 03:01:43;;;;;;;71.80;39.20;;;;;;;1.82;84.18;100432.56;5109377;28;20037;-69
2023/01/03 03:04:13;;;;;;;65.40;37.75;;;;;;;1.80;83.55;100427.28;5109862;28;20050;-68
2023/01/03 03:06:53;;;;;;;77.75;37.55;;;;;;;1.88;83.71;100441.75;5109949;28;20031;-69
2023/01/03 03:09:18;;;;;;;70.25;37.83;;;;;;;1.81;84.65;100447.47;5109823;28;20042;-68
2023/01/03 03:14:40;;;;;;;73.00;39.78;;;;;;;1.95;84.25;100445.19;5110163;28;20516;-68
2023/01/03 03:17:19;;;;;;;70.18;38.17;;;;;;;1.94;83.68;100438.00;5109926;28;20027;-68
2023/01/03 03:25:53;;;;;;;77.90;39.78;;;;;;;2.04;83.97;100437.31;5111058;28;20030;-68
2023/01/03 03:28:34;;;;;;;69.90;38.70;;;;;;;2.08;83.61;100444.81;5110928;28;20508;-68
2023/01/03 03:31:32;;;;;;;74.95;38.42;;;;;;;2.12;82.68;100436.88;5109668;28;20019;-68
2023/01/03 03:34:26;;;;;;;80.82;40.38;;;;;;;2.16;82.19;100435.28;5097785;28;20035;-69
2023/01/03 03:37:15;;;;;;;84.30;41.42;;;;;;;2.14;82.15;100442.13;5108527;28;20048;-68
2023/01/03 03:45:39;;;;;;;74.07;39.88;;;;;;;2.06;82.00;100429.59;5111105;28;20107;-69
2023/01/03 03:48:18;;;;;;;81.28;43.63;;;;;;;2.06;82.16;100435.13;5110842;28;20027;-69
2023/01/03 03:50:56;;;;;;;87.88;42.92;;;;;;;2.06;82.47;100424.94;5109608;28;20490;-69
2023/01/03 03:53:26;;;;;;;78.28;43.80;;;;;;;2.13;81.73;100433.03;5110517;28;20035;-69
2023/01/03 03:56:04;;;;;;;83.15;43.38;;;;;;;2.01;82.22;100435.06;5108421;28;20040;-69
2023/01/03 03:58:36;;;;;;;85.28;40.95;;;;;;;2.08;81.32;100432.94;5110885;28;20028;-69
2023/01/03 04:01:02;;;;;;;72.30;40.15;;;;;;;2.11;80.67;100437.94;5109712;28;20023;-69
2023/01/03 04:03:29;;;;;;;87.95;41.72;;;;;;;2.08;81.06;100438.47;5110739;28;20055;-69
2023/01/03 04:06:02;;;;;;;84.82;40.55;;;;;;;1.96;80.96;100441.34;5108179;28;20031;-69
2023/01/03 04:08:27;;;;;;;79.03;43.38;;;;;;;1.86;80.89;100427.38;5107624;28;20035;-69
2023/01/03 04:11:04;;;;;;;81.53;43.92;;;;;;;1.85;80.99;100440.34;5108572;28;20046;-69
2023/01/03 04:13:38;;;;;;;85.05;43.03;;;;;;;1.84;81.34;100438.66;5108082;28;20050;-69
2023/01/03 04:16:05;;;;;;;79.85;42.55;;;;;;;1.86;81.29;100443.94;5109123;28;20028;-69
2023/01/03 04:18:31;;;;;;;77.05;40.17;;;;;;;1.79;81.22;100435.84;5110380;28;20489;-69
2023/01/03 04:20:57;;;;;;;75.90;43.08;;;;;;;1.86;81.25;100435.66;5109707;28;20058;-69
2023/01/03 04:23:23;;;;;;;82.20;42.67;;;;;;;1.62;81.27;100433.91;5110396;28;20028;-70
2023/01/03 04:25:48;;;;;;;88.50;43.72;;;;;;;1.17;84.11;100435.66;5110099;28;20028;-69
2023/01/03 04:28:15;;;;;;;91.57;44.28;;;;;;;1.34;84.66;100432.09;5100862;28;20508;-69
2023/01/03 04:30:40;;;;;;;84.75;44.78;;;;;;;1.46;84.62;100437.53;5089273;28;20434;-69
2023/01/03 04:33:06;;;;;;;81.05;43.85;;;;;;;1.53;84.81;100433.50;5089389;28;20038;-69
2023/01/03 04:35:32;;;;;;;79.28;39.35;;;;;;;1.48;85.60;100436.19;5095768;28;20032;-69
2023/01/03 04:37:57;;;;;;;74.28;40.10;;;;;;;1.50;85.58;100434.03;5109481;28;20032;-69
2023/01/03 04:40:23;;;;;;;81.80;39.67;;;;;;;1.34;85.22;100437.63;5108581;28;20077;-69
2023/01/03 04:45:34;;;;;;;69.85;37.55;;;;;;;1.43;84.60;100438.84;5114543;28;20509;-69
2023/01/03 04:47:59;;;;;;;76.22;39.17;;;;;;;1.49;85.00;100445.28;5114472;28;20030;-69
2023/01/03 04:50:25;;;;;;;78.53;40.78;;;;;;;1.49;84.87;100443.38;5113884;28;20028;-69
2023/01/03 04:52:50;;;;;;;77.18;38.55;;;;;;;1.30;86.67;100445.53;5110519;28;20410;-69
2023/01/03 04:55:16;;;;;;;72.28;39.25;;;;;;;1.21;87.08;100447.88;5106834;28;20035;-69
2023/01/03 04:57:41;;;;;;;76.28;37.88;;;;;;;1.44;86.29;100456.25;5111236;28;20035;-69
2023/01/03 05:00:07;;;;;;;74.82;42.03;;;;;;;1.31;85.75;100451.88;5110673;28;20055;-70
2023/01/03 05:02:33;;;;;;;89.68;45.20;;;;;;;1.05;85.41;100448.66;5111387;28;20124;-69
2023/01/03 05:04:59;;;;;;;89.10;45.72;;;;;;;1.26;85.90;100452.63;5112407;28;20027;-70
2023/01/03 05:07:26;;;;;;;93.70;44.92;;;;;;;1.40;85.26;100454.00;5112237;28;20042;-69
2023/01/03 05:09:52;;;;;;;80.65;44.83;;;;;;;1.50;84.50;100452.47;5110320;28;20031;-69
2023/01/03 05:12:17;;;;;;;89.15;44.55;;;;;;;1.48;84.07;100455.50;5110611;28;20130;-70
2023/01/03 05:14:43;;;;;;;81.53;45.75;;;;;;;1.47;84.68;100462.09;5111366;28;20045;-72
2023/01/03 05:17:09;;;;;;;93.65;48.00;;;;;;;1.29;85.25;100459.56;5112601;28;20046;-69
2023/01/03 05:25:48;;;;;;;94.18;45.65;;;;;;;1.27;84.82;100457.06;5112708;28;20096;-71
2023/01/03 05:28:07;;;;;;;115.15;62.80;;;;;;;1.19;83.87;100461.06;5050510;28;20108;-69
2023/01/03 05:30:33;;;;;;;112.90;60.22;;;;;;;0.48;87.27;100462.19;5086838;28;20035;-69
2023/01/03 05:32:58;;;;;;;110.40;62.88;;;;;;;0.60;87.88;100458.56;5112697;28;20054;-72
2023/01/03 05:35:24;;;;;;;102.90;56.90;;;;;;;0.66;88.84;100463.06;5111154;28;20031;-69
2023/01/03 05:37:52;;;;;;;109.28;58.60;;;;;;;0.89;87.53;100462.16;5111991;28;20405;-71
2023/01/03 05:40:17;;;;;;;135.20;70.82;;;;;;;0.12;88.16;100464.16;5113581;28;20413;-70
2023/01/03 05:42:43;;;;;;;137.98;67.22;;;;;;;0.35;91.27;100467.97;5109974;28;20024;-69
2023/01/03 05:45:09;;;;;;;124.93;59.50;;;;;;;0.05;92.83;100472.53;5111089;28;20058;-69
2023/01/03 05:47:34;;;;;;;116.07;60.58;;;;;;;0.38;92.71;100476.56;5112533;28;20034;-70
2023/01/03 05:50:00;;;;;;;130.25;62.08;;;;;;;0.52;91.41;100468.03;5111370;28;20027;-69
2023/01/03 05:52:25;;;;;;;119.60;58.28;;;;;;;0.63;91.20;100469.06;5109210;28;20031;-69
2023/01/03 05:54:51;;;;;;;119.32;61.92;;;;;;;0.68;90.61;100467.25;5111755;28;20028;-71
2023/01/03 05:57:16;;;;;;;140.18;69.63;;;;;;;0.19;89.74;100467.63;5113330;27;20038;-70
2023/01/03 05:59:41;;;;;;;129.75;68.00;;;;;;;0.15;97.45;100468.34;5112682;28;20024;-71
2023/01/03 06:02:07;;;;;;;120.80;60.95;;;;;;;0.25;94.81;100479.59;5111886;28;20035;-71
2023/01/03 06:04:32;;;;;;;123.00;59.63;;;;;;;0.37;94.15;100469.41;5109369;28;20071;-73
2023/01/03 06:06:58;;;;;;;140.85;66.63;;;;;;;-0.12;95.40;100477.91;5108869;28;20031;-70
2023/01/03 06:09:23;;;;;;;127.05;70.95;;;;;;;-0.33;94.81;100471.94;5111610;28;20414;-69
2023/01/03 06:11:49;;;;;;;135.90;66.20;;;;;;;-0.12;97.50;100475.16;5109447;28;20035;-71
2023/01/03 06:14:14;;;;;;;145.68;70.25;;;;;;;0.08;96.59;100483.06;5105659;28;20034;-70
2023/01/03 06:19:24;;;;;;;131.65;68.00;;;;;;;0.36;94.73;100486.16;5102705;28;20164;-75
2023/01/03 06:21:49;;;;;;;173.02;83.40;;;;;;;0.30;92.13;100487.94;5099213;28;20122;-73
2023/01/03 06:24:15;;;;;;;91.72;48.95;;;;;;;-0.01;89.99;100495.50;5106913;28;20020;-72
2023/01/03 06:26:40;;;;;;;87.57;45.20;;;;;;;0.20;89.78;100498.72;5109200;28;20355;-72
2023/01/03 06:29:06;;;;;;;89.40;45.30;;;;;;;0.27;89.83;100504.94;5105113;28;20024;-72
2023/01/03 06:31:31;;;;;;;86.80;42.38;;;;;;;0.34;89.07;100497.38;5100433;28;20035;-73
2023/01/03 06:33:57;;;;;;;87.43;43.83;;;;;;;0.21;88.44;100492.13;5103229;28;20035;-74
2023/01/03 06:36:24;;;;;;;81.90;40.65;;;;;;;0.37;89.49;100494.16;5101804;28;20116;-71
2023/01/03 06:38:51;;;;;;;84.57;43.92;;;;;;;0.49;89.74;100498.81;5101467;28;20035;-74
2023/01/03 06:41:17;;;;;;;79.18;42.50;;;;;;;0.67;89.73;100498.63;5096214;28;20031;-69
2023/01/03 06:43:43;;;;;;;78.97;40.35;;;;;;;1.00;88.79;100490.75;5096456;28;20065;-73
2023/01/03 06:54:25;;;;;;;85.97;46.92;;;;;;;1.34;89.12;100495.50;5106759;28;20150;-73
2023/01/03 06:56:52;;;;;;;162.02;76.53;;;;;;;1.02;89.28;100496.84;5106963;28;20047;-73
2023/01/03 06:59:18;;;;;;;120.00;55.20;;;;;;;1.36;89.66;100498.84;5094685;28;20463;-74
2023/01/03 07:01:45;;;;;;;914.13;406.25;;;;;;;1.74;88.32;100491.78;5102872;28;20038;-72
2023/01/03 07:04:11;;;;;;;466.98;213.73;;;;;;;1.99;87.41;100498.78;5103801;28;20084;-70
2023/01/03 07:06:38;;;;;;;208.57;90.22;;;;;;;2.11;86.33;100493.16;5108372;28;20034;-69
2023/01/03 07:09:04;;;;;;;151.80;71.60;;;;;;;2.35;86.39;100491.03;5093816;28;20099;-70
2023/01/03 07:11:30;;;;;;;165.75;79.88;;;;;;;2.60;85.97;100495.22;5102048;28;20027;-71
2023/01/03 07:13:59;;;;;;;94.80;50.00;;;;;;;2.60;85.13;100489.69;5104292;28;20505;-69
2023/01/03 07:16:38;;;;;;;112.95;59.28;;;;;;;2.94;85.27;100497.00;5100830;28;20038;-69
2023/01/03 07:19:05;;;;;;;134.37;84.63;;;;;;;3.10;83.37;100486.94;5108594;28;20103;-71
2023/01/03 07:21:32;;;;;;;129.82;80.25;;;;;;;3.29;82.25;100489.38;5110058;28;20027;-80
2023/01/03 07:24:00;;;;;;;97.32;55.65;;;;;;;3.45;81.21;100493.94;5110190;28;20023;-74
2023/01/03 07:26:26;;;;;;;106.13;55.47;;;;;;;3.55;80.99;100484.06;5109220;28;20028;-74
2023/01/03 07:28:52;;;;;;;121.30;65.32;;;;;;;3.65;80.02;100487.75;5106249;28;20485;-71
2023/01/03 07:31:18;;;;;;;128.68;69.88;;;;;;;3.83;80.07;100499.53;5099906;28;20089;-72
2023/01/03 07:33:44;;;;;;;137.63;69.30;;;;;;;3.96;79.18;100497.41;5098309;28;20064;-73
2023/01/03 07:36:11;;;;;;;149.32;78.22;;;;;;;4.08;79.27;100493.31;5101239;28;20039;-72
2023/01/03 07:38:42;;;;;;;166.38;91.95;;;;;;;3.74;80.20;100496.41;5106686;28;20028;-70
2023/01/03 07:41:09;;;;;;;169.82;87.65;;;;;;;3.87;81.96;100494.31;5104756;28;20035;-68
2023/01/03 07:43:36;;;;;;;136.70;74.55;;;;;;;4.08;81.17;100496.09;5109696;28;20047;-67
2023/01/03 07:46:19;;;;;;;114.28;53.53;;;;;;;4.26;81.54;100493.16;5094340;28;20106;-69
2023/01/03 07:48:47;;;;;;;99.97;54.60;;;;;;;4.50;82.68;100488.06;5090351;28;20599;-71
2023/01/03 07:51:14;;;;;;;76.45;44.85;;;;;;;4.77;81.56;100475.97;5105058;28;20038;-69
2023/01/03 07:53:40;;;;;;;89.00;48.03;;;;;;;4.98;81.28;100484.38;5108788;28;20570;-68
2023/01/03 07:56:11;;;;;;;106.90;58.42;;;;;;;5.13;80.34;100487.16;5107564;28;20048;-67
2023/01/03 07:58:38;;;;;;;102.60;61.72;;;;;;;5.28;79.94;100482.75;5107329;28;20031;-65
2023/01/03 08:01:06;;;;;;;73.28;42.58;;;;;;;4.78;83.51;100483.19;5106770;28;20473;-66
2023/01/03 08:03:32;;;;;;;81.55;44.42;;;;;;;4.37;87.31;100480.22;5109877;28;20531;-67
2023/01/03 08:06:09;;;;;;;59.90;35.72;;;;;;;4.77;87.22;100485.13;5107776;28;20023;-68
2023/01/03 08:08:35;;;;;;;58.90;36.65;;;;;;;5.04;86.33;100480.47;5105797;28;20023;-68
2023/01/03 08:13:46;;;;;;;65.47;36.70;;;;;;;5.71;83.36;100483.38;5105069;28;20096;-69
2023/01/03 08:16:17;;;;;;;62.35;35.50;;;;;;;5.95;82.95;100471.69;5107072;28;20035;-68
2023/01/03 08:18:43;;;;;;;75.00;39.17;;;;;;;6.24;81.53;100475.84;5110619;28;20483;-69
2023/01/03 08:21:12;;;;;;;59.35;34.42;;;;;;;6.46;80.19;100472.72;5113134;28;20467;-68
2023/01/03 08:23:38;;;;;;;65.25;36.17;;;;;;;6.59;79.66;100465.75;5112357;28;20379;-69
2023/01/03 08:26:06;;;;;;;65.82;36.67;;;;;;;6.83;79.18;100468.69;5112669;28;20112;-74
2023/01/03 08:28:33;;;;;;;61.78;36.45;;;;;;;6.98;77.92;100469.72;5110542;28;20112;-67
2023/01/03 08:31:02;;;;;;;67.13;37.50;;;;;;;7.10;76.49;100472.97;5113636;27;20034;-71
2023/01/03 08:33:32;;;;;;;64.90;39.90;;;;;;;7.13;76.02;100464.09;5113010;28;20035;-69
2023/01/03 08:36:04;;;;;;;74.13;38.20;;;;;;;7.06;76.69;100468.28;5111949;28;20023;-69
2023/01/03 08:38:35;;;;;;;66.93;39.42;;;;;;;7.00;77.45;100462.75;5106878;28;20137;-69
2023/01/03 08:41:05;;;;;;;63.80;37.35;;;;;;;6.94;77.47;100468.63;5097820;28;20098;-71
2023/01/03 08:43:34;;;;;;;60.15;35.70;;;;;;;6.73;80.08;100460.38;5114584;28;20119;-70
2023/01/03 08:46:02;;;;;;;47.28;25.85;;;;;;;6.72;81.26;100454.00;5112741;27;20104;-69
2023/01/03 08:48:28;;;;;;;41.25;26.63;;;;;;;6.78;81.32;100457.59;5100624;28;20030;-69
2023/01/03 08:50:53;;;;;;;38.72;23.98;;;;;;;6.90;81.52;100454.47;5101511;28;20023;-69
2023/01/03 08:53:21;;;;;;;38.20;25.27;;;;;;;7.05;80.99;100450.78;5107587;28;20027;-68
2023/01/03 08:55:47;;;;;;;41.78;22.65;;;;;;;7.22;80.27;100443.97;5111913;28;20078;-70
2023/01/03 08:58:12;;;;;;;37.20;24.00;;;;;;;7.35;79.57;100443.31;5095414;28;20036;-70
2023/01/03 09:00:38;;;;;;;38.40;23.88;;;;;;;7.41;79.79;100444.13;5093033;28;20039;-70
2023/01/03 09:03:04;;;;;;;37.50;23.75;;;;;;;7.53;79.29;100435.41;5094623;28;20024;-70
2023/01/03 09:05:29;;;;;;;45.35;26.88;;;;;;;7.48;79.43;100444.63;5104111;28;20024;-70
2023/01/03 09:07:56;;;;;;;38.58;23.52;;;;;;;7.59;78.50;100440.66;5114836;28;20058;-70
2023/01/03 09:10:22;;;;;;;37.17;23.67;;;;;;;7.87;77.90;100434.56;5113101;28;20054;-70
2023/01/03 09:12:48;;;;;;;40.70;25.67;;;;;;;8.17;76.93;100440.94;5111148;27;20059;-70
2023/01/03 09:15:13;;;;;;;35.53;23.42;;;;;;;8.54;75.70;100433.84;5101555;28;20023;-70
2023/01/03 09:17:43;;;;;;;34.78;21.98;;;;;;;8.55;75.44;100424.34;5110894;28;20087;-70
2023/01/03 09:20:12;;;;;;;38.30;20.65;;;;;;;8.26;76.40;100436.38;5102364;28;20513;-70
2023/01/03 09:22:38;;;;;;;47.65;20.60;;;;;;;8.20;78.05;100428.38;5099727;28;20092;-70
2023/01/03 09:25:04;;;;;;;34.55;21.67;;;;;;;8.75;76.15;100414.06;5093756;28;20024;-69
2023/01/03 09:27:30;;;;;;;33.33;20.95;;;;;;;8.91;75.32;100397.09;5093495;28;20055;-71
2023/01/03 09:29:55;;;;;;;27.45;19.83;;;;;;;9.06;73.70;100399.69;5109484;28;20032;-71
2023/01/03 09:32:21;;;;;;;28.13;19.73;;;;;;;9.06;73.30;100399.69;5112247;27;20027;-70
2023/01/03 09:34:46;;;;;;;34.10;21.60;;;;;;;9.23;73.62;100393.56;5112250;28;20045;-70
2023/01/03 09:37:11;;;;;;;36.08;23.25;;;;;;;9.60;72.28;100381.81;5107268;28;20030;-70
2023/01/03 09:39:39;;;;;;;33.92;22.27;;;;;;;9.83;71.58;100379.97;5111813;28;20031;-70
2023/01/03 09:44:52;;;;;;;26.50;17.60;;;;;;;9.81;69.99;100359.91;5105690;28;20088;-70
2023/01/03 09:47:23;;;;;;;25.10;18.05;;;;;;;10.02;69.93;100367.91;5109789;28;20032;-70
2023/01/03 09:49:49;;;;;;;32.55;18.35;;;;;;;10.14;69.12;100359.84;5103310;28;20020;-70
2023/01/03 10:04:27;;;;;;;41.88;19.58;;;;;;;11.01;64.31;100330.28;5110903;28;20574;-71
2023/01/03 10:06:59;;;;;;;30.05;18.08;;;;;;;10.78;63.00;100319.88;5107768;28;20523;-71
2023/01/03 10:09:48;;;;;;;29.40;20.77;;;;;;;10.89;62.93;100319.66;5110028;27;20501;-72
2023/01/03 10:12:13;;;;;;;27.75;18.00;;;;;;;11.09;62.07;100326.72;5109686;28;20522;-71
2023/01/03 10:14:51;;;;;;;30.77;19.67;;;;;;;11.11;61.03;100321.63;5108038;28;20066;-69
2023/01/03 10:17:53;;;;;;;42.85;23.63;;;;;;;11.01;60.77;100321.88;5100863;28;20514;-72
2023/01/03 10:20:37;;;;;;;37.28;21.15;;;;;;;11.01;60.67;100311.50;5102023;28;20024;-72
2023/01/03 10:23:06;;;;;;;40.60;22.60;;;;;;;11.24;60.58;100317.13;5104622;28;20031;-70
2023/01/03 10:25:32;;;;;;;45.83;27.23;;;;;;;11.35;61.11;100312.06;5104060;28;20375;-71
2023/01/03 10:28:10;;;;;;;80.28;55.35;;;;;;;11.44;60.55;100303.72;5101008;28;20097;-71
2023/01/03 10:31:03;;;;;;;50.08;31.08;;;;;;;11.48;60.66;100299.16;5101729;28;20019;-72
2023/01/03 10:33:47;;;;;;;45.60;25.95;;;;;;;11.45;61.12;100288.56;5099778;28;20028;-70
2023/01/03 10:36:16;;;;;;;35.78;24.38;;;;;;;11.71;60.84;100296.28;5107805;28;20024;-67
2023/01/03 10:38:43;;;;;;;51.83;29.02;;;;;;;11.68;60.17;100296.91;5100989;28;20073;-68
2023/01/03 10:41:44;;;;;;;40.00;24.05;;;;;;;11.80;61.42;100294.34;5091297;28;20039;-72
2023/01/03 10:44:24;;;;;;;36.58;23.40;;;;;;;11.91;60.93;100281.69;5103549;28;20039;-71
2023/01/03 10:46:52;;;;;;;40.60;23.58;;;;;;;11.91;61.30;100278.06;5094332;28;20028;-69
2023/01/03 10:49:21;;;;;;;35.53;24.38;;;;;;;12.10;60.00;100271.38;5095149;28;20510;-68
2023/01/03 10:51:46;;;;;;;36.78;23.45;;;;;;;12.31;58.79;100269.63;5109980;27;20039;-70
2023/01/03 10:54:18;;;;;;;36.05;25.77;;;;;;;12.47;58.26;100267.16;5096568;28;20031;-68
2023/01/03 10:56:46;;;;;;;42.88;23.33;;;;;;;12.39;58.06;100251.16;5099437;28;20044;-69
2023/01/03 10:59:15;;;;;;;40.35;23.88;;;;;;;12.40;57.14;100266.81;5095378;28;20039;-73
2023/01/03 11:02:06;;;;;;;43.63;24.77;;;;;;;12.55;56.56;100256.25;5102672;28;20030;-69
2023/01/03 11:04:32;;;;;;;36.53;23.70;;;;;;;12.69;56.93;100242.91;5093850;28;20418;-68
2023/01/03 11:07:07;;;;;;;33.42;20.15;;;;;;;12.58;56.39;100239.59;5095661;28;20466;-67
2023/01/03 11:09:54;;;;;;;37.22;21.95;;;;;;;12.76;56.44;100242.41;5112766;27;20031;-67
2023/01/03 11:12:35;;;;;;;31.70;21.42;;;;;;;12.64;56.84;100231.84;5092817;28;20074;-67
2023/01/03 11:15:14;;;;;;;38.65;23.92;;;;;;;12.58;58.09;100227.56;5103845;28;20024;-67
2023/01/03 11:18:01;;;;;;;40.40;22.73;;;;;;;12.61;57.85;100221.28;5100065;28;20547;-67
2023/01/03 11:21:01;;;;;;;36.25;21.45;;;;;;;12.74;57.44;100225.91;5097289;28;20793;-67
2023/01/03 11:23:54;;;;;;;45.75;24.20;;;;;;;12.90;56.84;100222.56;5097155;28;20493;-67
2023/01/03 11:26:41;;;;;;;39.20;22.98;;;;;;;12.96;56.35;100207.22;5093745;28;20421;-68
2023/01/03 11:29:25;;;;;;;39.38;22.00;;;;;;;13.11;56.03;100210.66;5096516;28;20020;-67
2023/01/03 11:32:22;;;;;;;37.85;22.45;;;;;;;13.17;56.48;100203.72;5088968;28;20024;-67
2023/01/03 11:34:47;;;;;;;35.75;21.02;;;;;;;13.17;55.20;100198.09;5093585;28;20031;-68
2023/01/03 11:37:42;;;;;;;36.92;20.67;;;;;;;12.93;56.10;100193.84;5099143;28;20024;-67
2023/01/03 11:40:29;;;;;;;39.17;21.52;;;;;;;13.13;55.97;100194.28;5085814;28;20044;-67
2023/01/03 11:43:10;;;;;;;27.92;18.60;;;;;;;12.92;55.43;100192.19;5099300;28;20689;-67
2023/01/03 11:45:58;;;;;;;44.65;22.88;;;;;;;12.90;56.58;100188.88;5097434;28;20024;-67
2023/01/03 11:48:47;;;;;;;35.03;20.58;;;;;;;13.00;56.40;100184.91;5094492;28;20107;-67
2023/01/03 11:52:03;;;;;;;32.00;19.15;;;;;;;13.16;55.43;100179.59;5092394;28;20024;-67
2023/01/03 11:55:02;;;;;;;41.28;21.50;;;;;;;13.14;56.30;100177.09;5043338;28;20043;-67
2023/01/03 11:57:47;;;;;;;70.82;27.70;;;;;;;13.20;55.07;100164.50;5100472;28;20115;-67
2023/01/03 12:00:31;;;;;;;35.90;20.63;;;;;;;13.27;55.36;100163.19;5101378;28;20517;-66
2023/01/03 12:03:00;;;;;;;34.28;21.80;;;;;;;13.27;55.61;100166.00;5098972;28;20028;-66
2023/01/03 12:05:41;;;;;;;41.87;26.50;;;;;;;13.43;54.09;100164.25;5100622;28;20027;-66
2023/01/03 12:08:13;;;;;;;41.08;25.85;;;;;;;13.61;54.01;100150.97;5107488;28;20475;-67
2023/01/03 12:10:54;;;;;;;46.85;26.70;;;;;;;13.32;53.73;100146.13;5096490;28;20464;-67
2023/01/03 12:13:58;;;;;;;37.90;23.52;;;;;;;13.42;54.67;100156.19;5101393;28;20058;-67
2023/01/03 12:16:32;;;;;;;34.33;22.13;;;;;;;13.62;54.30;100151.81;5048716;28;20036;-68
2023/01/03 12:19:33;;;;;;;43.67;25.83;;;;;;;13.72;54.15;100145.81;5117164;27;20067;-67
2023/01/03 12:22:19;;;;;;;30.02;20.35;;;;;;;13.79;53.84;100138.81;5056349;28;20157;-67
2023/01/03 12:24:58;;;;;;;37.97;21.70;;;;;;;13.86;53.41;100134.28;5107739;28;20092;-67
2023/01/03 12:27:33;;;;;;;31.60;19.90;;;;;;;13.84;53.37;100131.00;5109427;28;20391;-67
2023/01/03 12:30:15;;;;;;;27.75;19.95;;;;;;;13.79;52.11;100139.63;5101143;28;20023;-68
2023/01/03 12:32:53;;;;;;;32.65;21.52;;;;;;;13.67;52.64;100122.69;5098153;28;20038;-69